SHT21B EGJB-EGLL
Flight info
| Callsign | SHT21B |
|---|---|
| Flight time | N/A |
| Altitude | 23000 |
| Route | ORIST L982 ROXOG |
| Aircraft | A320/M-SDE3FGHIRWY/LB1 |
Departure
| Time | 2026-04-21 18:26 |
|---|---|
| Airport | Guernsey Airport (EGJB) |
Arrival
| Time | N/A |
|---|---|
| Airport | London Heathrow Airport (EGLL) |
| Time | Latitude | Longitude | Altitude | Speed | Heading |
|---|---|---|---|---|---|
| 2026-04-21 18:03 | 49.43255 | -2.59684 | 328 ft | 0 kts | 178° |
| 2026-04-21 18:18 | 49.43268 | -2.59685 | 325 ft | 4 kts | 178° |
| 2026-04-21 18:19 | 49.43295 | -2.59686 | 328 ft | 4 kts | 178° |
| 2026-04-21 18:19 | 49.43322 | -2.59688 | 327 ft | 4 kts | 178° |
| 2026-04-21 18:19 | 49.43344 | -2.59692 | 326 ft | 4 kts | 137° |
| 2026-04-21 18:19 | 49.43353 | -2.59725 | 324 ft | 4 kts | 89° |
| 2026-04-21 18:20 | 49.43351 | -2.59759 | 325 ft | 1 kts | 74° |
| 2026-04-21 18:22 | 49.43351 | -2.59756 | 325 ft | 1 kts | 74° |
| 2026-04-21 18:22 | 49.43347 | -2.59748 | 325 ft | 1 kts | 141° |
| 2026-04-21 18:22 | 49.43342 | -2.59757 | 326 ft | 0 kts | 231° |
| 2026-04-21 18:22 | 49.43345 | -2.59792 | 326 ft | 9 kts | 272° |
| 2026-04-21 18:23 | 49.43341 | -2.59947 | 318 ft | 19 kts | 267° |
| 2026-04-21 18:23 | 49.43335 | -2.60210 | 299 ft | 30 kts | 268° |
| 2026-04-21 18:23 | 49.43327 | -2.60560 | 297 ft | 34 kts | 269° |
| 2026-04-21 18:23 | 49.43357 | -2.60843 | 304 ft | 19 kts | 281° |
| 2026-04-21 18:24 | 49.43364 | -2.60963 | 312 ft | 15 kts | 264° |
| 2026-04-21 18:24 | 49.43358 | -2.61184 | 312 ft | 16 kts | 267° |
| 2026-04-21 18:24 | 49.43377 | -2.61285 | 314 ft | 15 kts | 311° |
| 2026-04-21 18:24 | 49.43459 | -2.61347 | 316 ft | 11 kts | 35° |
| 2026-04-21 18:25 | 49.43468 | -2.61244 | 315 ft | 1 kts | 86° |
| 2026-04-21 18:26 | 49.43481 | -2.60802 | 310 ft | 85 kts | 88° |
| 2026-04-21 18:26 | 49.43513 | -2.59561 | 408 ft | 136 kts | 83° |
| 2026-04-21 18:26 | 49.43579 | -2.58080 | 1137 ft | 141 kts | 84° |
| 2026-04-21 18:27 | 49.43629 | -2.56508 | 1535 ft | 157 kts | 88° |
| 2026-04-21 18:27 | 49.43676 | -2.54710 | 1870 ft | 176 kts | 86° |
| 2026-04-21 18:27 | 49.44150 | -2.52846 | 2260 ft | 208 kts | 54° |
| 2026-04-21 18:27 | 49.45473 | -2.51563 | 2810 ft | 241 kts | 30° |
| 2026-04-21 18:28 | 49.47078 | -2.50653 | 3634 ft | 250 kts | 25° |
| 2026-04-21 18:28 | 49.48765 | -2.49829 | 4555 ft | 256 kts | 23° |
| 2026-04-21 18:28 | 49.50485 | -2.49019 | 5464 ft | 260 kts | 21° |
| 2026-04-21 18:28 | 49.52225 | -2.48189 | 6397 ft | 263 kts | 23° |
| 2026-04-21 18:29 | 49.53980 | -2.47331 | 7299 ft | 265 kts | 21° |
| 2026-04-21 18:29 | 49.55729 | -2.46457 | 8125 ft | 270 kts | 21° |
| 2026-04-21 18:29 | 49.57530 | -2.45545 | 8952 ft | 275 kts | 20° |
| 2026-04-21 18:29 | 49.59361 | -2.44609 | 9839 ft | 278 kts | 20° |
| 2026-04-21 18:30 | 49.61211 | -2.43655 | 10630 ft | 283 kts | 19° |
| 2026-04-21 18:30 | 49.63094 | -2.42681 | 11371 ft | 288 kts | 18° |
| 2026-04-21 18:30 | 49.65010 | -2.41692 | 12145 ft | 292 kts | 17° |
| 2026-04-21 18:30 | 49.66958 | -2.40687 | 12896 ft | 297 kts | 17° |
| 2026-04-21 18:31 | 49.68914 | -2.39573 | 13638 ft | 303 kts | 23° |
| 2026-04-21 18:31 | 49.70726 | -2.37809 | 14251 ft | 316 kts | 36° |
| 2026-04-21 18:31 | 49.72331 | -2.35283 | 14428 ft | 341 kts | 47° |
| 2026-04-21 18:31 | 49.73894 | -2.32421 | 14897 ft | 351 kts | 46° |
| 2026-04-21 18:32 | 49.75462 | -2.29552 | 15524 ft | 356 kts | 48° |
| 2026-04-21 18:32 | 49.77070 | -2.26612 | 16189 ft | 360 kts | 45° |
| 2026-04-21 18:32 | 49.78693 | -2.23647 | 16873 ft | 363 kts | 44° |
| 2026-04-21 18:32 | 49.80328 | -2.20659 | 17554 ft | 366 kts | 45° |
| 2026-04-21 18:33 | 49.81991 | -2.17618 | 18228 ft | 370 kts | 44° |
| 2026-04-21 18:33 | 49.83666 | -2.14559 | 18797 ft | 374 kts | 46° |
| 2026-04-21 18:33 | 49.85355 | -2.11471 | 18985 ft | 376 kts | 46° |
| 2026-04-21 18:33 | 49.87027 | -2.08413 | 19094 ft | 367 kts | 44° |
| 2026-04-21 18:34 | 49.88721 | -2.05319 | 19169 ft | 387 kts | 45° |
| 2026-04-21 18:34 | 49.90512 | -2.02048 | 19178 ft | 409 kts | 45° |
| 2026-04-21 18:34 | 49.92395 | -1.98602 | 19194 ft | 429 kts | 45° |
| 2026-04-21 18:34 | 49.94328 | -1.95048 | 19192 ft | 440 kts | 46° |
| 2026-04-21 18:35 | 49.95663 | -1.92578 | 19201 ft | 443 kts | 45° |
| 2026-04-21 18:35 | 49.98289 | -1.87703 | 19194 ft | 444 kts | 45° |
| 2026-04-21 18:35 | 50.00510 | -1.84423 | 19195 ft | 437 kts | 33° |
| 2026-04-21 18:35 | 50.03098 | -1.82026 | 19211 ft | 432 kts | 23° |
| 2026-04-21 18:36 | 50.05775 | -1.79907 | 19205 ft | 430 kts | 23° |
| 2026-04-21 18:36 | 50.08439 | -1.77812 | 19207 ft | 429 kts | 22° |
| 2026-04-21 18:36 | 50.11104 | -1.75717 | 19207 ft | 429 kts | 23° |
| 2026-04-21 18:36 | 50.13612 | -1.73139 | 19205 ft | 435 kts | 35° |
| 2026-04-21 18:37 | 50.15941 | -1.70122 | 19206 ft | 435 kts | 35° |
| 2026-04-21 18:37 | 50.18269 | -1.67088 | 19212 ft | 436 kts | 36° |
| 2026-04-21 18:37 | 50.20592 | -1.64063 | 19219 ft | 435 kts | 36° |
| 2026-04-21 18:37 | 50.22922 | -1.61034 | 19227 ft | 435 kts | 36° |
| 2026-04-21 18:38 | 50.25380 | -1.58349 | 19224 ft | 429 kts | 24° |
| 2026-04-21 18:38 | 50.28036 | -1.56243 | 19221 ft | 428 kts | 23° |
| 2026-04-21 18:38 | 50.30700 | -1.54154 | 19219 ft | 431 kts | 22° |
| 2026-04-21 18:38 | 50.33407 | -1.52038 | 19223 ft | 437 kts | 22° |
| 2026-04-21 18:39 | 50.36135 | -1.49903 | 19220 ft | 439 kts | 22° |
| 2026-04-21 18:39 | 50.38865 | -1.47758 | 19220 ft | 439 kts | 23° |
| 2026-04-21 18:39 | 50.41602 | -1.45598 | 19241 ft | 440 kts | 23° |
| 2026-04-21 18:39 | 50.44331 | -1.43439 | 19230 ft | 440 kts | 23° |
| 2026-04-21 18:40 | 50.47029 | -1.41299 | 19236 ft | 440 kts | 23° |
| 2026-04-21 18:40 | 50.49767 | -1.39128 | 18944 ft | 441 kts | 24° |
| 2026-04-21 18:40 | 50.51621 | -1.37658 | 18745 ft | 441 kts | 24° |
| 2026-04-21 18:40 | 50.55248 | -1.34788 | 18060 ft | 439 kts | 24° |
| 2026-04-21 18:41 | 50.57964 | -1.32634 | 17524 ft | 435 kts | 24° |
| 2026-04-21 18:41 | 50.60658 | -1.30493 | 17002 ft | 432 kts | 23° |
| 2026-04-21 18:41 | 50.63314 | -1.28378 | 16497 ft | 421 kts | 25° |
| 2026-04-21 18:41 | 50.65922 | -1.26298 | 15988 ft | 420 kts | 26° |
| 2026-04-21 18:42 | 50.68527 | -1.24220 | 15478 ft | 420 kts | 26° |
| 2026-04-21 18:42 | 50.71136 | -1.22134 | 15010 ft | 419 kts | 27° |
| 2026-04-21 18:42 | 50.73726 | -1.20054 | 14531 ft | 416 kts | 27° |
| 2026-04-21 18:42 | 50.76303 | -1.17982 | 14059 ft | 414 kts | 28° |
| 2026-04-21 18:43 | 50.78863 | -1.15931 | 13532 ft | 411 kts | 28° |
| 2026-04-21 18:43 | 50.81408 | -1.13900 | 13244 ft | 407 kts | 28° |